createdAt,value
2023-04-09T00:02:11.398Z,8.20
2023-04-09T00:04:39.741Z,10.20
2023-04-09T00:07:08.122Z,8.80
2023-04-09T00:09:36.742Z,9.47
2023-04-09T00:12:05.366Z,10.13
2023-04-09T00:14:35.044Z,9.70
2023-04-09T00:17:03.375Z,9.83
2023-04-09T00:19:31.646Z,9.70
2023-04-09T00:22:00.007Z,8.53
2023-04-09T00:24:28.384Z,9.30
2023-04-09T00:26:56.898Z,9.43
2023-04-09T00:29:25.365Z,9.83
2023-04-09T00:31:55.254Z,10.70
2023-04-09T00:34:23.673Z,10.20
2023-04-09T00:36:52.023Z,11.10
2023-04-09T00:39:20.455Z,9.40
2023-04-09T00:41:49.302Z,9.77
2023-04-09T00:44:17.652Z,8.37
2023-04-09T00:46:46.159Z,9.80
2023-04-09T00:49:16.179Z,9.10
2023-04-09T00:51:47.136Z,9.77
2023-04-09T00:54:16.144Z,10.10
2023-04-09T00:56:45.287Z,9.87
2023-04-09T00:59:13.667Z,9.23
2023-04-09T01:01:42.094Z,9.77
2023-04-09T01:04:10.896Z,9.80
2023-04-09T01:06:49.507Z,9.53
2023-04-09T01:09:26.105Z,10.40
2023-04-09T01:12:06.545Z,9.67
2023-04-09T01:14:41.860Z,9.83
2023-04-09T01:17:20.475Z,8.67
2023-04-09T01:20:00.298Z,9.80
2023-04-09T01:22:48.576Z,9.43
2023-04-09T01:25:32.167Z,10.37
2023-04-09T01:28:19.924Z,10.40
2023-04-09T01:30:51.524Z,10.90
2023-04-09T01:33:21.705Z,10.90
2023-04-09T01:35:51.534Z,10.03
2023-04-09T01:38:22.204Z,11.80
2023-04-09T01:40:51.860Z,11.43
2023-04-09T01:43:22.468Z,10.20
2023-04-09T01:45:52.006Z,11.13
2023-04-09T01:48:21.008Z,12.23
2023-04-09T01:50:50.939Z,11.40
2023-04-09T01:53:19.631Z,10.30
2023-04-09T01:55:48.050Z,10.10
2023-04-09T01:58:16.633Z,9.70
2023-04-09T02:00:49.966Z,10.97
2023-04-09T02:03:23.734Z,11.00
2023-04-09T02:06:09.223Z,11.80
2023-04-09T02:08:39.080Z,10.90
2023-04-09T02:11:11.368Z,11.70
2023-04-09T02:13:42.732Z,11.47
2023-04-09T02:16:14.783Z,11.40
2023-04-09T02:18:43.784Z,12.00
2023-04-09T02:21:13.768Z,10.87
2023-04-09T02:23:42.355Z,11.90
2023-04-09T02:26:10.823Z,11.10
2023-04-09T02:28:39.255Z,11.10
2023-04-09T02:31:07.738Z,11.90
2023-04-09T02:33:37.480Z,12.00
2023-04-09T02:36:06.819Z,11.40
2023-04-09T02:38:35.727Z,11.40
2023-04-09T02:41:04.209Z,11.80
2023-04-09T02:43:32.591Z,11.30
2023-04-09T02:46:01.043Z,11.17
2023-04-09T02:48:29.424Z,11.03
2023-04-09T02:50:59.804Z,10.63
2023-04-09T02:53:28.260Z,11.83
2023-04-09T02:55:56.620Z,11.23
2023-04-09T02:58:24.979Z,12.83
2023-04-09T03:00:53.388Z,11.40
2023-04-09T03:03:21.976Z,11.50
2023-04-09T03:05:50.486Z,12.33
2023-04-09T03:08:20.507Z,12.00
2023-04-09T03:10:49.009Z,12.20
2023-04-09T03:13:17.451Z,11.80
2023-04-09T03:15:45.959Z,10.60
2023-04-09T03:18:14.385Z,13.20
2023-04-09T03:20:43.936Z,11.00
2023-04-09T03:23:14.446Z,11.93
2023-04-09T03:25:48.680Z,12.50
2023-04-09T03:28:18.859Z,11.77
2023-04-09T03:30:53.972Z,12.60
2023-04-09T03:33:23.682Z,12.00
2023-04-09T03:35:55.765Z,11.90
2023-04-09T03:38:47.153Z,12.07
2023-04-09T03:41:28.359Z,12.97
2023-04-09T03:43:59.108Z,11.90
2023-04-09T03:46:32.601Z,12.30
2023-04-09T03:49:02.524Z,13.17
2023-04-09T03:51:44.574Z,12.67
2023-04-09T03:54:13.703Z,12.57
2023-04-09T03:56:44.372Z,11.77
2023-04-09T03:59:15.144Z,12.87
2023-04-09T04:01:47.189Z,11.80
2023-04-09T04:04:16.437Z,11.93
2023-04-09T04:06:49.240Z,12.30
2023-04-09T04:09:46.726Z,12.50
2023-04-09T04:12:19.813Z,13.10
2023-04-09T04:15:09.981Z,13.13
2023-04-09T04:17:43.987Z,12.90
2023-04-09T04:20:24.348Z,14.20
2023-04-09T04:23:02.172Z,14.40
2023-04-09T04:25:31.394Z,12.43
2023-04-09T04:28:01.219Z,12.83
2023-04-09T04:30:38.243Z,12.83
2023-04-09T04:33:09.797Z,12.63
2023-04-09T04:35:52.499Z,14.40
2023-04-09T04:38:50.290Z,13.37
2023-04-09T04:41:33.160Z,13.07
2023-04-09T04:44:29.073Z,13.00
2023-04-09T04:47:06.709Z,12.93
2023-04-09T04:49:35.661Z,13.30
2023-04-09T04:52:07.534Z,14.50
2023-04-09T04:54:36.527Z,14.53
2023-04-09T04:57:05.110Z,15.20
2023-04-09T04:59:42.016Z,13.90
2023-04-09T05:02:15.866Z,12.67
2023-04-09T05:05:15.472Z,12.30
2023-04-09T05:07:50.467Z,14.00
2023-04-09T05:10:19.058Z,13.50
2023-04-09T05:12:47.995Z,14.30
2023-04-09T05:15:25.604Z,13.90
2023-04-09T05:17:54.327Z,13.43
2023-04-09T05:20:23.286Z,14.03
2023-04-09T05:23:04.478Z,13.57
2023-04-09T05:25:38.122Z,14.50
2023-04-09T05:28:07.795Z,14.03
2023-04-09T05:30:38.775Z,13.60
2023-04-09T05:33:07.455Z,13.93
2023-04-09T05:35:40.275Z,14.40
2023-04-09T05:38:08.792Z,14.30
2023-04-09T05:40:37.248Z,14.50
2023-04-09T05:43:11.541Z,15.40
2023-04-09T05:45:44.416Z,14.03
2023-04-09T05:48:12.892Z,14.03
2023-04-09T05:50:54.126Z,13.73
2023-04-09T05:53:25.947Z,12.90
2023-04-09T05:55:54.340Z,14.27
2023-04-09T05:58:27.388Z,14.40
2023-04-09T06:01:00.134Z,14.67
2023-04-09T06:03:28.912Z,14.60
2023-04-09T06:05:57.405Z,14.33
2023-04-09T06:08:25.856Z,13.70
2023-04-09T06:10:54.239Z,15.43
2023-04-09T06:13:22.640Z,14.30
2023-04-09T06:15:51.203Z,14.00
2023-04-09T06:18:20.928Z,14.43
2023-04-09T06:20:49.224Z,14.63
2023-04-09T06:23:19.644Z,14.33
2023-04-09T06:25:47.961Z,15.40
2023-04-09T06:28:16.456Z,14.83
2023-04-09T06:30:45.032Z,15.27
2023-04-09T06:33:13.430Z,14.33
2023-04-09T06:35:43.754Z,15.30
2023-04-09T06:38:12.074Z,15.30
2023-04-09T06:40:40.580Z,15.53
2023-04-09T06:43:09.640Z,15.13
2023-04-09T06:45:44.004Z,14.47
2023-04-09T06:48:12.854Z,14.00
2023-04-09T06:50:42.576Z,16.50
2023-04-09T06:53:10.993Z,13.73
2023-04-09T06:55:39.569Z,14.30
2023-04-09T06:58:07.934Z,16.30
2023-04-09T07:00:36.287Z,15.27
2023-04-09T07:03:05.622Z,14.70
2023-04-09T07:05:34.152Z,15.20
2023-04-09T07:08:04.250Z,14.50
2023-04-09T07:10:32.577Z,15.53
2023-04-09T07:13:01.094Z,14.20
2023-04-09T07:15:29.386Z,14.83
2023-04-09T07:17:57.990Z,16.20
2023-04-09T07:20:26.349Z,17.17
2023-04-09T07:22:54.695Z,15.33
2023-04-09T07:25:24.477Z,16.60
2023-04-09T07:27:53.191Z,16.47
2023-04-09T07:30:22.109Z,16.30
2023-04-09T07:32:51.024Z,15.33
2023-04-09T07:35:19.662Z,15.67
2023-04-09T07:37:48.017Z,14.27
2023-04-09T07:40:16.525Z,16.30
2023-04-09T07:42:46.263Z,15.90
2023-04-09T07:45:14.611Z,16.03
2023-04-09T07:47:42.960Z,15.60
2023-04-09T07:50:12.403Z,15.80
2023-04-09T07:52:40.889Z,16.60
2023-04-09T07:55:10.084Z,17.80
2023-04-09T07:57:38.529Z,16.13
2023-04-09T08:00:10.518Z,16.37
2023-04-09T08:02:42.516Z,15.43
2023-04-09T08:05:11.618Z,15.73
2023-04-09T08:07:40.092Z,15.30
2023-04-09T08:10:14.962Z,14.37
2023-04-09T08:12:43.496Z,15.63
2023-04-09T08:15:13.513Z,15.23
2023-04-09T08:17:42.037Z,15.67
2023-04-09T08:20:12.311Z,16.23
2023-04-09T08:22:42.270Z,14.20
2023-04-09T08:25:10.701Z,15.23
2023-04-09T08:27:39.862Z,13.80
2023-04-09T08:30:10.234Z,15.27
2023-04-09T08:32:40.090Z,14.10
2023-04-09T08:35:10.335Z,17.10
2023-04-09T08:37:38.698Z,15.37
2023-04-09T08:40:10.042Z,14.73
2023-04-09T08:42:41.315Z,15.87
2023-04-09T08:45:11.758Z,15.70
2023-04-09T08:47:43.361Z,15.30
2023-04-09T08:50:12.186Z,15.97
2023-04-09T08:52:41.728Z,15.23
2023-04-09T08:55:13.204Z,14.23
2023-04-09T08:57:42.051Z,14.47
2023-04-09T09:00:11.502Z,14.67
2023-04-09T09:03:02.986Z,15.50
2023-04-09T09:05:38.854Z,13.93
2023-04-09T09:08:08.816Z,13.10
2023-04-09T09:10:42.280Z,13.30
2023-04-09T09:13:23.215Z,13.10
2023-04-09T09:15:55.115Z,13.03
2023-04-09T09:18:40.494Z,11.87
2023-04-09T09:21:12.951Z,13.67
2023-04-09T09:23:42.434Z,13.83
2023-04-09T09:26:16.382Z,13.73
2023-04-09T09:28:45.468Z,14.83
2023-04-09T09:31:14.808Z,11.80
2023-04-09T09:33:45.154Z,12.17
2023-04-09T09:36:13.711Z,13.07
2023-04-09T09:38:54.878Z,13.53
2023-04-09T09:41:25.052Z,13.07
2023-04-09T09:43:53.704Z,11.87
2023-04-09T09:46:23.337Z,12.57
2023-04-09T09:48:53.509Z,12.93
2023-04-09T09:51:28.827Z,11.10
2023-04-09T09:53:58.489Z,12.70
2023-04-09T09:56:33.594Z,12.40
2023-04-09T09:59:08.900Z,12.90
2023-04-09T10:01:38.513Z,11.40
2023-04-09T10:04:13.603Z,12.87
2023-04-09T10:06:46.196Z,11.60
2023-04-09T10:09:14.923Z,11.50
2023-04-09T10:11:45.630Z,12.60
2023-04-09T10:14:15.103Z,11.77
2023-04-09T10:16:44.112Z,12.03
2023-04-09T10:19:15.261Z,13.57
2023-04-09T10:21:49.665Z,13.53
2023-04-09T10:24:18.618Z,11.37
2023-04-09T10:26:47.098Z,11.10
2023-04-09T10:29:17.162Z,11.53
2023-04-09T10:31:56.147Z,11.00
2023-04-09T10:34:29.365Z,9.80
2023-04-09T10:36:59.778Z,11.30
2023-04-09T10:39:29.956Z,10.60
2023-04-09T10:41:59.448Z,9.33
2023-04-09T10:44:31.868Z,10.27
2023-04-09T10:47:00.419Z,11.40
2023-04-09T10:49:38.100Z,10.37
2023-04-09T10:52:11.935Z,10.53
2023-04-09T10:54:48.295Z,9.23
2023-04-09T10:57:20.770Z,10.20
2023-04-09T10:59:51.599Z,7.87
2023-04-09T11:03:01.785Z,8.53
2023-04-09T11:05:35.240Z,8.90
2023-04-09T11:08:09.403Z,8.77
2023-04-09T11:10:38.674Z,8.20
2023-04-09T11:13:07.243Z,8.20
2023-04-09T11:15:37.822Z,8.07
2023-04-09T11:18:07.031Z,8.37
2023-04-09T11:20:37.399Z,8.80
2023-04-09T11:23:06.412Z,8.20
2023-04-09T11:25:36.173Z,7.20
2023-04-09T11:28:06.122Z,9.03
2023-04-09T11:30:35.734Z,10.27
2023-04-09T11:33:04.436Z,8.73
2023-04-09T11:35:37.691Z,9.20
2023-04-09T11:38:10.413Z,9.67
2023-04-09T11:40:47.818Z,10.40
2023-04-09T11:43:17.045Z,9.27
2023-04-09T11:45:48.922Z,9.63
2023-04-09T11:48:19.202Z,10.43
2023-04-09T11:50:49.259Z,11.07
2023-04-09T11:53:19.693Z,11.00
2023-04-09T11:55:51.525Z,10.80
2023-04-09T11:58:23.800Z,10.57
2023-04-09T12:00:55.621Z,10.30
2023-04-09T12:03:32.426Z,10.27
2023-04-09T12:06:04.275Z,9.67
2023-04-09T12:08:34.661Z,8.00
2023-04-09T12:11:11.440Z,8.73
2023-04-09T12:13:43.456Z,7.47
2023-04-09T12:16:12.859Z,8.50
2023-04-09T12:18:41.690Z,8.90
2023-04-09T12:21:11.525Z,9.00
2023-04-09T12:23:39.957Z,8.23
2023-04-09T12:26:08.442Z,9.00
2023-04-09T12:28:37.026Z,8.93
2023-04-09T12:31:06.018Z,9.17
2023-04-09T12:33:34.543Z,8.00
2023-04-09T12:36:03.010Z,8.77
2023-04-09T12:38:32.858Z,8.27
2023-04-09T12:41:01.387Z,8.40
2023-04-09T12:43:29.804Z,7.40
2023-04-09T12:45:58.255Z,8.23
2023-04-09T12:48:26.835Z,8.27
2023-04-09T12:50:55.233Z,7.00
2023-04-09T12:53:23.728Z,7.20
2023-04-09T12:55:53.451Z,6.40
2023-04-09T12:58:21.814Z,6.67
2023-04-09T13:00:50.120Z,7.67
2023-04-09T13:03:18.689Z,6.70
2023-04-09T13:05:47.316Z,6.80
2023-04-09T13:08:16.260Z,6.90
2023-04-09T13:10:45.146Z,6.13
2023-04-09T13:13:14.969Z,7.00
2023-04-09T13:15:45.013Z,6.23
2023-04-09T13:18:14.511Z,6.10
2023-04-09T13:20:43.023Z,6.57
2023-04-09T13:23:11.677Z,7.07
2023-04-09T13:25:40.062Z,6.50
2023-04-09T13:28:09.134Z,7.43
2023-04-09T13:30:39.064Z,7.27
2023-04-09T13:33:07.494Z,7.00
2023-04-09T13:35:35.927Z,6.57
2023-04-09T13:38:04.268Z,7.40
2023-04-09T13:40:32.729Z,7.10
2023-04-09T13:43:01.136Z,6.33
2023-04-09T13:45:29.619Z,6.50
2023-04-09T13:48:00.682Z,5.30
2023-04-09T13:50:29.144Z,5.80
2023-04-09T13:52:57.461Z,5.80
2023-04-09T13:57:54.165Z,6.10
2023-04-09T14:00:22.585Z,5.63
2023-04-09T14:02:51.183Z,5.67
2023-04-09T14:05:21.193Z,4.97
2023-04-09T14:07:49.684Z,5.40
2023-04-09T14:10:18.142Z,5.63
2023-04-09T14:12:46.573Z,5.63
2023-04-09T14:15:15.747Z,5.40
2023-04-09T14:17:45.385Z,5.13
2023-04-09T14:20:14.164Z,5.43
2023-04-09T14:22:49.070Z,4.57
2023-04-09T14:25:17.675Z,6.03
2023-04-09T14:27:46.352Z,5.63
2023-04-09T14:30:15.106Z,5.77
2023-04-09T14:32:43.551Z,5.63
2023-04-09T14:35:11.909Z,5.87
2023-04-09T14:37:41.034Z,5.97
2023-04-09T14:40:11.795Z,5.97
2023-04-09T14:42:40.802Z,5.30
2023-04-09T14:45:10.391Z,5.70
2023-04-09T14:47:38.860Z,5.53
2023-04-09T14:50:08.299Z,5.50
2023-04-09T14:52:38.193Z,5.30
2023-04-09T14:55:12.180Z,5.60
2023-04-09T14:57:42.737Z,4.97
2023-04-09T15:00:13.804Z,6.00
2023-04-09T15:02:42.554Z,5.10
2023-04-09T15:05:12.132Z,5.47
2023-04-09T15:07:40.637Z,5.70
2023-04-09T15:10:10.592Z,4.50
2023-04-09T15:12:41.865Z,4.40
2023-04-09T15:15:11.223Z,3.90
2023-04-09T15:17:39.617Z,4.23
2023-04-09T15:20:09.400Z,4.80
2023-04-09T15:22:37.727Z,4.50
2023-04-09T15:25:07.314Z,4.70
2023-04-09T15:27:35.985Z,4.77
2023-04-09T15:30:07.654Z,4.73
2023-04-09T15:32:36.250Z,4.60
2023-04-09T15:35:05.006Z,4.53
2023-04-09T15:37:33.638Z,5.00
2023-04-09T15:40:02.078Z,4.53
2023-04-09T15:42:30.473Z,4.50
2023-04-09T15:44:58.874Z,4.80
2023-04-09T15:47:29.268Z,5.10
2023-04-09T15:49:59.729Z,4.40
2023-04-09T15:52:28.186Z,4.47
2023-04-09T15:54:56.527Z,5.27
2023-04-09T15:57:24.929Z,5.07
2023-04-09T15:59:54.046Z,4.10
2023-04-09T16:02:24.102Z,5.20
2023-04-09T16:04:55.658Z,4.67
2023-04-09T16:07:24.060Z,4.80
2023-04-09T16:09:52.387Z,3.70
2023-04-09T16:12:20.785Z,4.70
2023-04-09T16:14:49.268Z,4.60
2023-04-09T16:17:17.849Z,4.33
2023-04-09T16:19:46.444Z,4.17
2023-04-09T16:22:16.703Z,4.27
2023-04-09T16:24:45.275Z,4.40
2023-04-09T16:27:14.535Z,3.77
2023-04-09T16:29:42.978Z,5.13
2023-04-09T16:32:11.472Z,4.07
2023-04-09T16:34:39.822Z,3.97
2023-04-09T16:37:08.579Z,3.30
2023-04-09T16:39:38.318Z,3.87
2023-04-09T16:42:07.138Z,4.33
2023-04-09T16:44:35.773Z,4.40
2023-04-09T16:47:04.120Z,4.60
2023-04-09T16:49:32.604Z,4.70
2023-04-09T16:52:00.983Z,4.77
2023-04-09T16:54:29.314Z,4.20
2023-04-09T16:56:59.147Z,4.07
2023-04-09T16:59:27.510Z,4.77
2023-04-09T17:01:56.188Z,4.57
2023-04-09T17:04:24.619Z,4.47
2023-04-09T17:06:53.091Z,4.70
2023-04-09T17:09:21.432Z,4.33
2023-04-09T17:11:52.925Z,4.37
2023-04-09T17:14:22.866Z,5.07
2023-04-09T17:16:52.987Z,3.80
2023-04-09T17:19:21.708Z,4.20
2023-04-09T17:21:50.057Z,4.97
2023-04-09T17:24:18.698Z,4.43
2023-04-09T17:26:47.071Z,4.40
2023-04-09T17:29:16.685Z,4.80
2023-04-09T17:31:46.474Z,4.47
2023-04-09T17:34:16.394Z,4.13
2023-04-09T17:36:47.053Z,4.70
2023-04-09T17:39:15.505Z,5.07
2023-04-09T17:41:43.887Z,4.33
2023-04-09T17:44:12.279Z,4.47
2023-04-09T17:46:40.641Z,4.80
2023-04-09T17:49:10.686Z,5.20
2023-04-09T17:51:39.371Z,5.00
2023-04-09T17:54:07.814Z,5.30
2023-04-09T17:56:39.025Z,4.90
2023-04-09T17:59:07.738Z,5.10
2023-04-09T18:01:36.299Z,4.20
2023-04-09T18:04:05.184Z,4.40
2023-04-09T18:06:35.137Z,4.90
2023-04-09T18:09:03.518Z,5.23
2023-04-09T18:11:31.990Z,5.10
2023-04-09T18:14:00.560Z,5.50
2023-04-09T18:16:29.074Z,5.30
2023-04-09T18:18:57.548Z,5.90
2023-04-09T18:21:27.059Z,5.00
2023-04-09T18:23:56.893Z,5.30
2023-04-09T18:26:25.563Z,4.97
2023-04-09T18:28:54.263Z,4.93
2023-04-09T18:31:23.183Z,4.40
2023-04-09T18:33:52.412Z,5.43
2023-04-09T18:36:20.727Z,5.20
2023-04-09T18:38:49.130Z,4.50
2023-04-09T18:41:24.779Z,5.07
2023-04-09T18:43:53.402Z,4.73
2023-04-09T18:46:22.894Z,4.70
2023-04-09T18:48:51.752Z,5.23
2023-04-09T18:51:20.986Z,5.67
2023-04-09T18:53:52.920Z,5.80
2023-04-09T18:56:22.979Z,6.00
2023-04-09T18:58:52.455Z,6.10
2023-04-09T19:01:21.213Z,5.83
2023-04-09T19:03:49.925Z,5.10
2023-04-09T19:06:19.643Z,5.33
2023-04-09T19:08:50.081Z,5.03
2023-04-09T19:11:18.424Z,6.23
2023-04-09T19:13:48.165Z,6.03
2023-04-09T19:16:17.076Z,5.80
2023-04-09T19:18:45.770Z,6.90
2023-04-09T19:21:14.208Z,5.80
2023-04-09T19:23:43.100Z,6.00
2023-04-09T19:26:12.120Z,7.63
2023-04-09T19:28:40.528Z,7.60
2023-04-09T19:31:12.693Z,7.10
2023-04-09T19:33:41.179Z,6.97
2023-04-09T19:36:09.555Z,7.77
2023-04-09T19:38:37.990Z,6.97
2023-04-09T19:41:06.826Z,8.00
2023-04-09T19:43:36.850Z,6.50
2023-04-09T19:46:08.444Z,7.50
2023-04-09T19:48:40.606Z,7.40
2023-04-09T19:51:09.013Z,7.70
2023-04-09T19:53:37.856Z,7.53
2023-04-09T19:56:07.213Z,8.13
2023-04-09T19:58:35.916Z,7.00
2023-04-09T20:01:04.293Z,6.57
2023-04-09T20:03:33.512Z,6.90
2023-04-09T20:06:08.562Z,6.63
2023-04-09T20:08:37.865Z,6.40
2023-04-09T20:11:07.949Z,6.53
2023-04-09T20:13:36.257Z,6.70
2023-04-09T20:16:05.521Z,6.90
2023-04-09T20:18:33.997Z,6.37
2023-04-09T20:21:03.737Z,6.73
2023-04-09T20:23:32.072Z,6.70
2023-04-09T20:26:00.886Z,6.87
2023-04-09T20:28:29.715Z,6.80
2023-04-09T20:30:58.131Z,7.10
2023-04-09T20:33:26.567Z,5.93
2023-04-09T20:35:55.055Z,6.37
2023-04-09T20:38:25.227Z,7.40
2023-04-09T20:40:53.689Z,6.87
2023-04-09T20:43:22.319Z,7.00
2023-04-09T20:45:50.671Z,7.40
2023-04-09T20:48:19.828Z,7.10
2023-04-09T20:50:48.160Z,7.30
2023-04-09T20:53:17.931Z,7.43
2023-04-09T20:55:47.674Z,7.60
2023-04-09T20:58:15.996Z,8.10
2023-04-09T21:00:44.324Z,8.93
2023-04-09T21:03:12.883Z,9.67
2023-04-09T21:05:41.399Z,9.43
2023-04-09T21:08:14.637Z,9.97
2023-04-09T21:10:43.102Z,10.07
2023-04-09T21:13:12.826Z,9.83
2023-04-09T21:15:41.207Z,10.00
2023-04-09T21:18:09.582Z,9.97
2023-04-09T21:20:37.991Z,9.90
2023-04-09T21:23:06.346Z,9.73
2023-04-09T21:25:34.834Z,9.30
2023-04-09T21:28:03.370Z,10.53
2023-04-09T21:30:33.661Z,9.90
2023-04-09T21:33:04.180Z,11.00
2023-04-09T21:35:32.770Z,10.60
2023-04-09T21:38:02.892Z,10.03
2023-04-09T21:40:31.786Z,10.23
2023-04-09T21:43:00.151Z,11.20
2023-04-09T21:45:28.472Z,10.80
2023-04-09T21:47:58.155Z,9.97
2023-04-09T21:50:26.553Z,11.40
2023-04-09T21:52:54.813Z,10.83
2023-04-09T21:55:23.363Z,10.33
2023-04-09T21:57:53.580Z,11.77
2023-04-09T22:00:21.970Z,12.57
2023-04-09T22:02:50.944Z,12.40
2023-04-09T22:05:20.801Z,11.00
2023-04-09T22:07:49.184Z,11.67
2023-04-09T22:10:17.575Z,11.30
2023-04-09T22:12:46.142Z,11.73
2023-04-09T22:15:14.597Z,12.33
2023-04-09T22:17:42.990Z,11.40
2023-04-09T22:20:11.918Z,11.83
2023-04-09T22:22:42.503Z,11.70
2023-04-09T22:25:12.346Z,11.57
2023-04-09T22:27:40.739Z,11.47
2023-04-09T22:30:10.332Z,10.70
2023-04-09T22:32:38.769Z,11.17
2023-04-09T22:35:07.898Z,11.10
2023-04-09T22:37:36.277Z,11.70
2023-04-09T22:40:14.044Z,11.50
2023-04-09T22:42:43.250Z,11.20
2023-04-09T22:45:12.248Z,12.27
2023-04-09T22:47:40.845Z,11.33
2023-04-09T22:50:11.215Z,10.70
2023-04-09T22:52:39.554Z,11.43
2023-04-09T22:55:11.059Z,10.63
2023-04-09T22:57:42.704Z,12.20
2023-04-09T23:00:11.844Z,11.20
2023-04-09T23:02:40.826Z,11.03
2023-04-09T23:05:11.138Z,10.93
2023-04-09T23:07:39.569Z,11.43
2023-04-09T23:10:14.182Z,11.10
2023-04-09T23:12:42.739Z,11.67
2023-04-09T23:15:12.446Z,11.17
2023-04-09T23:17:41.615Z,11.10
2023-04-09T23:20:14.773Z,12.10
2023-04-09T23:22:43.400Z,11.57
2023-04-09T23:25:14.114Z,11.77
2023-04-09T23:27:42.658Z,11.27
2023-04-09T23:30:16.625Z,10.90
2023-04-09T23:32:45.936Z,10.70
2023-04-09T23:35:14.405Z,10.20
2023-04-09T23:37:43.739Z,10.80
2023-04-09T23:40:15.205Z,11.00
2023-04-09T23:42:43.625Z,11.73
2023-04-09T23:45:13.010Z,11.50
2023-04-09T23:47:42.341Z,9.80
2023-04-09T23:50:11.730Z,10.70
2023-04-09T23:52:40.223Z,11.20
2023-04-09T23:55:09.787Z,10.40
2023-04-09T23:57:39.970Z,10.97
